createdAt,value
2022-10-22T00:01:34.602Z,63.18
2022-10-22T00:04:02.316Z,63.47
2022-10-22T00:06:30.158Z,63.73
2022-10-22T00:08:57.856Z,63.62
2022-10-22T00:11:25.709Z,63.87
2022-10-22T00:13:53.368Z,63.97
2022-10-22T00:16:22.640Z,64.08
2022-10-22T00:18:50.276Z,63.90
2022-10-22T00:21:18.071Z,63.90
2022-10-22T00:23:45.737Z,63.87
2022-10-22T00:26:14.532Z,63.75
2022-10-22T00:28:42.164Z,63.95
2022-10-22T00:31:09.913Z,63.94
2022-10-22T00:33:38.937Z,64.07
2022-10-22T00:36:07.328Z,64.19
2022-10-22T00:38:34.993Z,64.33
2022-10-22T00:41:02.749Z,63.93
2022-10-22T00:43:30.503Z,64.33
2022-10-22T00:45:58.331Z,64.04
2022-10-22T00:48:26.957Z,64.25
2022-10-22T00:50:57.470Z,64.03
2022-10-22T00:53:27.766Z,64.20
2022-10-22T00:55:55.472Z,64.02
2022-10-22T00:58:25.402Z,63.96
2022-10-22T01:00:53.184Z,63.85
2022-10-22T01:03:21.013Z,63.84
2022-10-22T01:05:52.270Z,63.93
2022-10-22T01:08:26.922Z,63.96
2022-10-22T01:10:58.964Z,63.73
2022-10-22T01:13:34.299Z,63.82
2022-10-22T01:16:05.256Z,63.80
2022-10-22T01:18:36.086Z,63.90
2022-10-22T01:21:09.441Z,64.31
2022-10-22T01:24:03.063Z,64.33
2022-10-22T01:26:37.113Z,64.25
2022-10-22T01:29:08.182Z,64.56
2022-10-22T01:31:37.381Z,64.36
2022-10-22T01:34:05.033Z,64.20
2022-10-22T01:36:33.165Z,64.13
2022-10-22T01:39:01.237Z,64.26
2022-10-22T01:41:29.441Z,64.37
2022-10-22T01:43:57.204Z,64.34
2022-10-22T01:46:27.207Z,64.13
2022-10-22T01:49:06.130Z,64.09
2022-10-22T01:51:51.813Z,64.07
2022-10-22T01:54:26.548Z,64.02
2022-10-22T01:56:59.568Z,64.45
2022-10-22T01:59:34.548Z,64.60
2022-10-22T02:02:06.205Z,64.45
2022-10-22T02:04:35.348Z,64.43
2022-10-22T02:07:05.609Z,64.67
2022-10-22T02:09:33.256Z,64.36
2022-10-22T02:12:02.185Z,64.63
2022-10-22T02:14:30.389Z,64.42
2022-10-22T02:16:58.098Z,64.39
2022-10-22T02:19:28.946Z,64.91
2022-10-22T02:21:56.761Z,64.46
2022-10-22T02:24:24.502Z,64.56
2022-10-22T02:26:55.341Z,64.42
2022-10-22T02:29:25.774Z,64.61
2022-10-22T02:31:53.490Z,64.50
2022-10-22T02:34:23.178Z,64.51
2022-10-22T02:36:52.339Z,64.34
2022-10-22T02:39:20.233Z,64.69
2022-10-22T02:41:48.064Z,64.53
2022-10-22T02:44:15.776Z,64.64
2022-10-22T02:46:43.545Z,64.94
2022-10-22T02:49:11.285Z,64.55
2022-10-22T02:51:39.138Z,64.82
2022-10-22T02:54:08.251Z,64.76
2022-10-22T02:56:36.070Z,64.76
2022-10-22T02:59:03.834Z,65.05
2022-10-22T03:01:31.666Z,64.66
2022-10-22T03:03:59.466Z,65.18
2022-10-22T03:06:27.413Z,65.02
2022-10-22T03:08:55.297Z,65.14
2022-10-22T03:11:24.754Z,65.60
2022-10-22T03:13:52.569Z,65.59
2022-10-22T03:16:20.335Z,65.75
2022-10-22T03:18:48.090Z,65.85
2022-10-22T03:21:22.220Z,65.81
2022-10-22T03:23:49.995Z,66.14
2022-10-22T03:26:17.739Z,66.06
2022-10-22T03:28:48.414Z,65.83
2022-10-22T03:31:16.220Z,66.00
2022-10-22T03:33:44.070Z,66.48
2022-10-22T03:36:11.819Z,66.36
2022-10-22T03:38:40.523Z,66.47
2022-10-22T03:41:08.310Z,66.91
2022-10-22T03:43:36.196Z,66.54
2022-10-22T03:46:05.663Z,66.93
2022-10-22T03:48:33.418Z,66.92
2022-10-22T03:51:01.146Z,66.63
2022-10-22T03:53:28.940Z,66.65
2022-10-22T03:55:56.634Z,66.70
2022-10-22T03:58:24.347Z,67.03
2022-10-22T04:00:52.160Z,67.11
2022-10-22T04:03:21.307Z,66.86
2022-10-22T04:05:49.154Z,66.95
2022-10-22T04:08:16.891Z,66.89
2022-10-22T04:10:44.776Z,66.97
2022-10-22T04:13:12.488Z,66.72
2022-10-22T04:15:40.313Z,66.69
2022-10-22T04:18:08.099Z,66.93
2022-10-22T04:20:37.490Z,66.97
2022-10-22T04:23:05.295Z,66.69
2022-10-22T04:25:33.033Z,66.38
2022-10-22T04:28:00.830Z,66.60
2022-10-22T04:30:28.784Z,66.55
2022-10-22T04:32:56.736Z,66.25
2022-10-22T04:37:55.841Z,66.33
2022-10-22T04:40:23.771Z,66.59
2022-10-22T04:42:51.745Z,66.32
2022-10-22T04:45:19.780Z,66.40
2022-10-22T04:47:47.521Z,66.25
2022-10-22T04:50:15.719Z,66.13
2022-10-22T04:52:45.605Z,66.10
2022-10-22T04:55:14.750Z,66.46
2022-10-22T04:57:42.854Z,65.84
2022-10-22T05:00:12.015Z,66.13
2022-10-22T05:02:40.589Z,66.07
2022-10-22T05:05:09.090Z,65.68
2022-10-22T05:07:36.994Z,65.55
2022-10-22T05:10:05.173Z,65.65
2022-10-22T05:12:34.411Z,65.58
2022-10-22T05:15:02.464Z,65.51
2022-10-22T05:17:30.319Z,65.90
2022-10-22T05:19:58.419Z,65.70
2022-10-22T05:22:26.416Z,65.82
2022-10-22T05:24:54.646Z,66.17
2022-10-22T05:27:25.734Z,66.50
2022-10-22T05:29:55.118Z,67.29
2022-10-22T05:32:23.099Z,67.31
2022-10-22T05:34:50.821Z,67.47
2022-10-22T05:37:18.882Z,67.64
2022-10-22T05:39:46.719Z,67.65
2022-10-22T05:42:14.612Z,68.05
2022-10-22T05:44:42.427Z,67.96
2022-10-22T05:47:11.699Z,67.64
2022-10-22T05:49:39.592Z,67.87
2022-10-22T05:52:07.439Z,67.56
2022-10-22T05:54:35.253Z,67.91
2022-10-22T05:57:03.138Z,67.79
2022-10-22T05:59:31.009Z,67.66
2022-10-22T06:01:59.006Z,67.96
2022-10-22T06:04:31.056Z,67.44
2022-10-22T06:06:58.861Z,67.79
2022-10-22T06:09:31.154Z,67.83
2022-10-22T06:11:59.248Z,67.52
2022-10-22T06:14:35.119Z,67.24
2022-10-22T06:17:02.996Z,67.56
2022-10-22T06:19:36.729Z,67.50
2022-10-22T06:22:05.026Z,67.52
2022-10-22T06:24:32.987Z,67.36
2022-10-22T06:27:01.050Z,67.40
2022-10-22T06:29:34.860Z,66.85
2022-10-22T06:32:02.747Z,67.08
2022-10-22T06:34:33.691Z,66.88
2022-10-22T06:37:08.976Z,66.68
2022-10-22T06:39:37.089Z,66.38
2022-10-22T06:42:05.399Z,66.12
2022-10-22T06:44:33.374Z,65.96
2022-10-22T06:47:02.266Z,65.71
2022-10-22T06:49:30.199Z,65.56
2022-10-22T06:51:59.522Z,65.05
2022-10-22T06:54:27.411Z,64.58
2022-10-22T06:56:55.350Z,63.80
2022-10-22T06:59:23.105Z,62.21
2022-10-22T07:01:51.124Z,61.23
2022-10-22T07:04:18.946Z,60.18
2022-10-22T07:06:46.797Z,59.37
2022-10-22T07:09:16.055Z,58.46
2022-10-22T07:11:44.857Z,57.35
2022-10-22T07:14:12.599Z,57.44
2022-10-22T07:16:42.269Z,57.75
2022-10-22T07:19:10.299Z,57.90
2022-10-22T07:21:38.350Z,56.60
2022-10-22T07:24:06.743Z,55.32
2022-10-22T07:26:36.975Z,53.51
2022-10-22T07:29:06.147Z,53.01
2022-10-22T07:31:34.033Z,52.19
2022-10-22T07:34:01.887Z,49.77
2022-10-22T07:36:29.736Z,48.34
2022-10-22T07:38:58.572Z,47.61
2022-10-22T07:41:27.046Z,45.93
2022-10-22T07:43:59.850Z,45.30
2022-10-22T07:46:27.924Z,44.54
2022-10-22T07:48:55.724Z,43.67
2022-10-22T07:51:23.602Z,43.16
2022-10-22T07:53:51.493Z,42.25
2022-10-22T07:56:19.299Z,41.65
2022-10-22T07:58:54.217Z,40.97
2022-10-22T08:01:23.371Z,39.92
2022-10-22T08:03:51.224Z,39.73
2022-10-22T08:06:19.009Z,40.19
2022-10-22T08:08:47.695Z,40.63
2022-10-22T08:11:16.493Z,39.75
2022-10-22T08:13:45.831Z,38.54
2022-10-22T08:16:14.168Z,36.72
2022-10-22T08:18:44.046Z,35.99
2022-10-22T08:21:14.217Z,36.77
2022-10-22T08:23:42.430Z,37.88
2022-10-22T08:26:10.821Z,38.60
2022-10-22T08:28:39.515Z,39.77
2022-10-22T08:31:07.845Z,40.68
2022-10-22T08:33:40.165Z,41.16
2022-10-22T08:36:26.947Z,42.30
2022-10-22T08:38:54.892Z,43.73
2022-10-22T08:41:32.645Z,44.32
2022-10-22T08:44:28.780Z,45.36
2022-10-22T08:47:05.233Z,46.35
2022-10-22T08:49:37.158Z,47.57
2022-10-22T09:45:34.796Z,47.34
2022-10-22T09:48:12.288Z,47.30
2022-10-22T09:50:42.630Z,47.30
2022-10-22T09:53:14.486Z,47.21
2022-10-22T09:55:42.896Z,47.38
2022-10-22T09:58:12.126Z,47.54
2022-10-22T10:00:41.794Z,47.59
2022-10-22T10:03:17.139Z,47.93
2022-10-22T10:05:49.780Z,47.80
2022-10-22T10:08:24.169Z,47.57
2022-10-22T10:10:53.830Z,47.34
2022-10-22T10:13:40.409Z,47.76
2022-10-22T10:16:17.143Z,47.40
2022-10-22T10:18:54.834Z,47.28
2022-10-22T10:21:27.773Z,46.97
2022-10-22T10:23:58.468Z,46.90
2022-10-22T10:26:28.786Z,47.10
2022-10-22T10:29:03.266Z,47.46
2022-10-22T10:31:39.446Z,47.29
2022-10-22T10:34:16.349Z,47.58
2022-10-22T10:36:49.934Z,47.67
2022-10-22T10:39:19.919Z,47.54
2022-10-22T10:54:35.626Z,48.32
2022-10-22T10:57:05.334Z,48.04
2022-10-22T10:59:59.684Z,48.03
2022-10-22T11:03:18.860Z,48.13
2022-10-22T11:05:52.018Z,48.26
2022-10-22T11:08:22.396Z,48.22
2022-10-22T11:10:56.593Z,48.19
2022-10-22T11:13:32.248Z,47.69
2022-10-22T11:16:06.380Z,47.84
2022-10-22T11:18:37.091Z,46.88
2022-10-22T11:21:16.106Z,47.21
2022-10-22T11:23:46.925Z,47.78
2022-10-22T11:26:21.019Z,47.67
2022-10-22T11:28:50.447Z,47.62
2022-10-22T11:31:31.020Z,47.00
2022-10-22T11:34:28.414Z,47.16
2022-10-22T11:36:53.748Z,47.71
2022-10-22T11:39:50.688Z,47.57
2022-10-22T11:42:28.638Z,47.73
2022-10-22T11:45:04.290Z,47.82
2022-10-22T11:47:35.837Z,48.17
2022-10-22T11:50:30.848Z,47.81
2022-10-22T11:53:23.752Z,47.96
2022-10-22T12:17:34.990Z,46.95
2022-10-22T12:20:13.083Z,47.28
2022-10-22T12:22:41.309Z,47.17
2022-10-22T12:25:17.505Z,46.82
2022-10-22T12:27:57.271Z,46.62
2022-10-22T12:30:26.078Z,46.65
2022-10-22T12:32:57.173Z,46.44
2022-10-22T12:35:27.310Z,46.30
2022-10-22T12:38:04.421Z,46.22
2022-10-22T12:40:34.822Z,45.63
2022-10-22T12:43:03.868Z,46.29
2022-10-22T12:45:33.751Z,46.02
2022-10-22T12:48:07.611Z,45.52
2022-10-22T12:50:50.955Z,45.44
2022-10-22T12:59:50.242Z,45.47
2022-10-22T13:02:21.643Z,45.13
2022-10-22T13:05:28.537Z,45.16
2022-10-22T13:08:06.528Z,45.68
2022-10-22T13:10:35.833Z,45.49
2022-10-22T13:13:06.771Z,45.10
2022-10-22T13:15:39.504Z,45.09
2022-10-22T13:18:17.687Z,44.73
2022-10-22T13:20:54.245Z,44.85
2022-10-22T13:23:23.128Z,44.33
2022-10-22T13:25:58.826Z,44.66
2022-10-22T13:28:29.660Z,44.85
2022-10-22T13:31:16.136Z,44.36
2022-10-22T13:34:08.556Z,44.04
2022-10-22T13:36:40.596Z,44.83
2022-10-22T13:39:15.161Z,43.69
2022-10-22T13:41:43.019Z,44.01
2022-10-22T13:44:18.552Z,44.05
2022-10-22T13:46:46.758Z,44.37
2022-10-22T13:49:27.182Z,44.11
2022-10-22T13:51:56.800Z,43.99
2022-10-22T13:54:44.428Z,43.72
2022-10-22T13:57:12.456Z,44.10
2022-10-22T13:59:40.484Z,44.36
2022-10-22T14:02:10.937Z,44.17
2022-10-22T14:04:41.532Z,44.74
2022-10-22T14:07:13.854Z,44.74
2022-10-22T14:09:41.740Z,44.92
2022-10-22T14:12:14.149Z,44.55
2022-10-22T14:14:43.513Z,44.31
2022-10-22T14:17:15.784Z,44.36
2022-10-22T14:19:45.015Z,44.64
2022-10-22T14:22:16.921Z,44.22
2022-10-22T14:24:49.701Z,44.30
2022-10-22T14:27:18.048Z,44.38
2022-10-22T14:29:46.445Z,44.40
2022-10-22T14:32:14.699Z,44.23
2022-10-22T14:34:43.570Z,44.18
2022-10-22T14:37:19.408Z,43.97
2022-10-22T14:39:52.247Z,43.77
2022-10-22T14:42:21.438Z,44.17
2022-10-22T14:44:49.311Z,44.15
2022-10-22T14:47:17.488Z,44.02
2022-10-22T14:49:45.467Z,44.78
2022-10-22T14:52:14.931Z,44.61
2022-10-22T14:54:44.808Z,45.15
2022-10-22T14:57:14.403Z,45.38
2022-10-22T14:59:42.744Z,45.50
2022-10-22T15:02:14.097Z,45.63
2022-10-22T15:04:42.122Z,45.68
2022-10-22T15:07:18.985Z,46.09
2022-10-22T15:09:49.050Z,45.89
2022-10-22T15:12:18.278Z,46.20
2022-10-22T15:14:46.214Z,46.11
2022-10-22T15:17:14.140Z,46.68
2022-10-22T15:19:43.491Z,46.69
2022-10-22T15:22:39.636Z,46.41
2022-10-22T15:25:09.683Z,46.76
2022-10-22T15:27:37.595Z,46.84
2022-10-22T15:30:06.865Z,47.06
2022-10-22T15:32:36.136Z,47.00
2022-10-22T15:35:05.783Z,47.53
2022-10-22T15:37:38.195Z,47.66
2022-10-22T15:40:33.566Z,47.86
2022-10-22T15:43:20.887Z,48.67
2022-10-22T15:45:51.563Z,48.80
2022-10-22T15:48:35.289Z,49.11
2022-10-22T15:51:08.256Z,49.23
2022-10-22T15:53:48.613Z,49.36
2022-10-22T15:56:27.937Z,49.63
2022-10-22T16:03:09.500Z,50.24
2022-10-22T16:05:37.341Z,50.83
2022-10-22T16:08:32.116Z,51.15
2022-10-22T16:15:14.063Z,51.56
2022-10-22T16:17:42.310Z,51.68
2022-10-22T16:20:14.316Z,51.84
2022-10-22T16:23:00.395Z,52.10
2022-10-22T16:25:28.559Z,52.24
2022-10-22T16:27:56.375Z,52.36
2022-10-22T16:30:25.551Z,52.58
2022-10-22T16:32:53.548Z,52.64
2022-10-22T16:35:21.596Z,52.32
2022-10-22T16:37:57.763Z,52.66
2022-10-22T16:40:25.710Z,52.68
2022-10-22T16:42:54.211Z,53.02
2022-10-22T16:45:21.998Z,53.20
2022-10-22T16:47:51.422Z,53.44
2022-10-22T16:50:19.765Z,53.46
2022-10-22T16:52:48.034Z,53.90
2022-10-22T16:55:15.948Z,53.83
2022-10-22T16:57:44.006Z,54.14
2022-10-22T17:00:15.746Z,54.34
2022-10-22T17:02:43.989Z,54.22
2022-10-22T17:05:14.522Z,54.61
2022-10-22T17:07:42.343Z,54.63
2022-10-22T17:10:10.519Z,54.62
2022-10-22T17:12:38.366Z,54.32
2022-10-22T17:15:07.300Z,54.59
2022-10-22T17:17:35.184Z,54.72
2022-10-22T17:20:03.031Z,54.73
2022-10-22T17:22:32.255Z,55.06
2022-10-22T17:25:13.909Z,54.53
2022-10-22T17:27:42.128Z,54.91
2022-10-22T17:30:13.166Z,55.21
2022-10-22T17:32:40.990Z,55.24
2022-10-22T17:35:09.595Z,55.23
2022-10-22T17:37:38.801Z,55.65
2022-10-22T17:40:07.700Z,55.90
2022-10-22T17:42:35.565Z,55.59
2022-10-22T17:45:03.531Z,55.75
2022-10-22T17:47:31.347Z,55.99
2022-10-22T17:49:59.203Z,56.02
2022-10-22T17:52:27.133Z,56.07
2022-10-22T17:54:56.475Z,56.10
2022-10-22T17:57:24.403Z,56.24
2022-10-22T17:59:52.294Z,56.64
2022-10-22T18:02:20.212Z,56.53
2022-10-22T18:04:51.323Z,56.79
2022-10-22T18:07:20.713Z,56.84
2022-10-22T18:09:49.247Z,56.65
2022-10-22T18:12:19.209Z,56.87
2022-10-22T18:14:47.499Z,56.94
2022-10-22T18:17:15.638Z,56.85
2022-10-22T18:19:43.567Z,57.16
2022-10-22T18:22:11.375Z,57.24
2022-10-22T18:24:40.013Z,57.25
2022-10-22T18:27:07.979Z,57.34
2022-10-22T18:29:37.384Z,57.36
2022-10-22T18:32:12.152Z,57.58
2022-10-22T18:34:43.766Z,57.16
2022-10-22T18:37:11.570Z,57.15
2022-10-22T18:39:39.466Z,57.35
2022-10-22T18:42:07.685Z,57.21
2022-10-22T18:44:37.289Z,57.51
2022-10-22T18:47:06.198Z,57.50
2022-10-22T18:49:34.287Z,57.49
2022-10-22T18:52:02.276Z,57.75
2022-10-22T18:54:30.208Z,57.69
2022-10-22T18:57:01.963Z,57.80
2022-10-22T18:59:30.710Z,57.82
2022-10-22T19:02:00.004Z,58.04
2022-10-22T19:04:33.029Z,57.96
2022-10-22T19:07:00.989Z,57.84
2022-10-22T19:09:28.908Z,58.04
2022-10-22T19:11:56.796Z,57.95
2022-10-22T19:14:24.779Z,58.25
2022-10-22T19:16:53.263Z,58.14
2022-10-22T19:19:22.609Z,58.34
2022-10-22T19:21:50.533Z,58.22
2022-10-22T19:24:19.134Z,58.21
2022-10-22T19:26:47.639Z,58.33
2022-10-22T19:29:16.184Z,58.20
2022-10-22T19:31:44.290Z,58.18
2022-10-22T19:34:12.279Z,58.38
2022-10-22T19:36:41.483Z,58.58
2022-10-22T19:39:25.937Z,58.53
2022-10-22T19:41:53.809Z,58.37
2022-10-22T19:44:21.720Z,58.62
2022-10-22T19:46:49.518Z,58.76
2022-10-22T19:49:21.980Z,58.73
2022-10-22T19:51:52.236Z,58.88
2022-10-22T19:54:20.580Z,58.80
2022-10-22T19:56:48.650Z,59.00
2022-10-22T19:59:16.867Z,59.08
2022-10-22T20:01:44.602Z,59.30
2022-10-22T20:04:14.927Z,59.51
2022-10-22T20:06:42.902Z,59.35
2022-10-22T20:09:12.178Z,59.41
2022-10-22T20:11:40.071Z,59.46
2022-10-22T20:14:07.930Z,59.56
2022-10-22T20:16:36.183Z,59.49
2022-10-22T20:19:05.362Z,59.53
2022-10-22T20:21:33.591Z,59.61
2022-10-22T20:24:01.461Z,59.71
2022-10-22T20:26:31.849Z,59.44
2022-10-22T20:28:59.825Z,59.67
2022-10-22T20:31:29.435Z,59.79
2022-10-22T20:34:00.991Z,59.90
2022-10-22T20:36:29.232Z,59.90
2022-10-22T20:39:00.080Z,60.08
2022-10-22T20:41:27.971Z,59.86
2022-10-22T20:43:57.356Z,59.97
2022-10-22T20:46:26.272Z,60.00
2022-10-22T20:48:54.895Z,60.30
2022-10-22T20:51:22.784Z,60.43
2022-10-22T20:53:50.693Z,60.57
2022-10-22T20:56:18.806Z,60.72
2022-10-22T20:58:48.673Z,60.78
2022-10-22T21:01:24.058Z,60.71
2022-10-22T21:03:52.289Z,60.53
2022-10-22T21:06:23.797Z,60.57
2022-10-22T21:08:52.642Z,60.61
2022-10-22T21:11:20.701Z,60.54
2022-10-22T21:13:48.608Z,60.62
2022-10-22T21:16:18.408Z,60.82
2022-10-22T21:18:46.427Z,60.65
2022-10-22T21:21:14.499Z,60.78
2022-10-22T21:23:42.435Z,60.56
2022-10-22T21:26:13.156Z,60.16
2022-10-22T21:28:41.084Z,60.21
2022-10-22T21:31:10.970Z,60.46
2022-10-22T21:33:40.713Z,60.32
2022-10-22T21:36:09.842Z,60.34
2022-10-22T21:38:37.890Z,60.38
2022-10-22T21:41:06.405Z,60.43
2022-10-22T21:43:34.030Z,60.82
2022-10-22T21:46:07.980Z,60.39
2022-10-22T21:48:36.355Z,60.82
2022-10-22T21:51:08.765Z,60.60
2022-10-22T21:53:36.517Z,60.87
2022-10-22T21:56:04.656Z,60.53
2022-10-22T21:58:32.277Z,60.65
2022-10-22T22:01:00.577Z,60.75
2022-10-22T22:03:28.299Z,60.65
2022-10-22T22:05:58.755Z,60.49
2022-10-22T22:08:27.919Z,60.46
2022-10-22T22:11:01.581Z,60.12
2022-10-22T22:13:29.552Z,60.00
2022-10-22T22:16:00.837Z,60.08
2022-10-22T22:18:29.575Z,60.10
2022-10-22T22:20:57.432Z,60.07
2022-10-22T22:23:25.032Z,60.15
2022-10-22T22:25:54.037Z,60.23
2022-10-22T22:28:21.694Z,60.17
2022-10-22T22:30:49.318Z,60.05
2022-10-22T22:33:16.959Z,60.05
2022-10-22T22:35:44.720Z,59.95
2022-10-22T22:38:12.373Z,60.00
2022-10-22T22:40:41.103Z,60.05
2022-10-22T22:43:10.176Z,60.05
2022-10-22T22:45:39.092Z,59.75
2022-10-22T22:50:40.376Z,60.09
2022-10-22T22:53:07.995Z,60.16
2022-10-22T22:55:35.608Z,60.09
2022-10-22T22:58:03.400Z,60.13
2022-10-22T23:00:32.404Z,60.33
2022-10-22T23:03:00.144Z,60.23
2022-10-22T23:05:27.830Z,60.40
2022-10-22T23:07:55.434Z,60.31
2022-10-22T23:10:23.026Z,60.43
2022-10-22T23:12:50.772Z,60.41
2022-10-22T23:15:18.591Z,60.60
2022-10-22T23:17:47.572Z,60.61
2022-10-22T23:20:15.304Z,60.84
2022-10-22T23:22:43.193Z,60.99
2022-10-22T23:25:11.034Z,60.85
2022-10-22T23:27:38.914Z,60.73
2022-10-22T23:30:07.834Z,60.75
2022-10-22T23:32:35.554Z,60.63
2022-10-22T23:35:04.932Z,60.86
2022-10-22T23:37:32.547Z,60.55
2022-10-22T23:40:00.219Z,60.70
2022-10-22T23:42:27.856Z,60.63
2022-10-22T23:44:55.565Z,60.73
2022-10-22T23:47:23.212Z,60.81
2022-10-22T23:49:50.828Z,60.72
2022-10-22T23:52:19.902Z,60.67
2022-10-22T23:54:47.479Z,60.84
2022-10-22T23:57:15.221Z,61.06
2022-10-22T23:59:43.025Z,60.97
